sensor_id;sensor_type;location;lat;lon;timestamp;P1;durP1;ratioP1;P2;durP2;ratioP2
41059;SDS011;26811;53.160;8.202;2023-07-16T00:03:35;22.02;;;6.93;;
41059;SDS011;26811;53.160;8.202;2023-07-16T00:08:35;30.83;;;6.63;;
41059;SDS011;26811;53.160;8.202;2023-07-16T00:13:36;33.47;;;7.32;;
41059;SDS011;26811;53.160;8.202;2023-07-16T00:18:37;15.80;;;6.50;;
41059;SDS011;26811;53.160;8.202;2023-07-16T00:23:37;25.58;;;5.88;;
41059;SDS011;26811;53.160;8.202;2023-07-16T00:28:38;20.75;;;6.75;;
41059;SDS011;26811;53.160;8.202;2023-07-16T00:33:38;23.70;;;6.50;;
41059;SDS011;26811;53.160;8.202;2023-07-16T00:38:39;19.83;;;6.70;;
41059;SDS011;26811;53.160;8.202;2023-07-16T00:43:41;25.73;;;7.87;;
41059;SDS011;26811;53.160;8.202;2023-07-16T00:48:42;20.20;;;6.70;;
41059;SDS011;26811;53.160;8.202;2023-07-16T00:53:43;18.52;;;6.22;;
41059;SDS011;26811;53.160;8.202;2023-07-16T00:58:45;21.63;;;6.63;;
41059;SDS011;26811;53.160;8.202;2023-07-16T01:03:46;21.55;;;6.82;;
41059;SDS011;26811;53.160;8.202;2023-07-16T01:08:49;19.20;;;6.80;;
41059;SDS011;26811;53.160;8.202;2023-07-16T01:14:07;19.00;;;6.45;;
41059;SDS011;26811;53.160;8.202;2023-07-16T01:19:08;27.25;;;7.10;;
41059;SDS011;26811;53.160;8.202;2023-07-16T01:34:44;21.38;;;7.03;;
41059;SDS011;26811;53.160;8.202;2023-07-16T01:39:45;27.05;;;7.40;;
41059;SDS011;26811;53.160;8.202;2023-07-16T01:44:47;24.95;;;7.38;;
41059;SDS011;26811;53.160;8.202;2023-07-16T01:49:47;24.42;;;7.90;;
41059;SDS011;26811;53.160;8.202;2023-07-16T01:54:48;21.20;;;7.43;;
41059;SDS011;26811;53.160;8.202;2023-07-16T01:59:49;27.77;;;7.97;;
41059;SDS011;26811;53.160;8.202;2023-07-16T02:04:49;25.73;;;7.68;;
41059;SDS011;26811;53.160;8.202;2023-07-16T02:09:51;22.48;;;7.50;;
41059;SDS011;26811;53.160;8.202;2023-07-16T02:14:51;22.42;;;7.50;;
41059;SDS011;26811;53.160;8.202;2023-07-16T02:19:52;19.75;;;7.15;;
41059;SDS011;26811;53.160;8.202;2023-07-16T02:24:52;23.80;;;6.85;;
41059;SDS011;26811;53.160;8.202;2023-07-16T02:29:53;24.85;;;7.90;;
41059;SDS011;26811;53.160;8.202;2023-07-16T02:34:53;32.05;;;8.52;;
41059;SDS011;26811;53.160;8.202;2023-07-16T02:39:54;26.40;;;7.03;;
41059;SDS011;26811;53.160;8.202;2023-07-16T02:44:54;23.48;;;7.68;;
41059;SDS011;26811;53.160;8.202;2023-07-16T02:49:55;22.52;;;7.50;;
41059;SDS011;26811;53.160;8.202;2023-07-16T02:54:55;23.42;;;7.88;;
41059;SDS011;26811;53.160;8.202;2023-07-16T02:59:56;34.13;;;8.57;;
41059;SDS011;26811;53.160;8.202;2023-07-16T03:04:56;34.42;;;8.73;;
41059;SDS011;26811;53.160;8.202;2023-07-16T03:09:57;31.88;;;9.60;;
41059;SDS011;26811;53.160;8.202;2023-07-16T03:14:57;26.00;;;8.27;;
41059;SDS011;26811;53.160;8.202;2023-07-16T03:19:58;24.52;;;8.75;;
41059;SDS011;26811;53.160;8.202;2023-07-16T03:24:58;32.15;;;8.27;;
41059;SDS011;26811;53.160;8.202;2023-07-16T03:29:59;38.38;;;9.15;;
41059;SDS011;26811;53.160;8.202;2023-07-16T03:34:59;29.80;;;9.38;;
41059;SDS011;26811;53.160;8.202;2023-07-16T03:40:13;27.38;;;9.27;;
41059;SDS011;26811;53.160;8.202;2023-07-16T03:45:14;32.70;;;9.48;;
41059;SDS011;26811;53.160;8.202;2023-07-16T03:50:15;38.28;;;8.90;;
41059;SDS011;26811;53.160;8.202;2023-07-16T03:55:16;36.00;;;9.75;;
41059;SDS011;26811;53.160;8.202;2023-07-16T04:00:16;33.38;;;8.70;;
41059;SDS011;26811;53.160;8.202;2023-07-16T04:05:17;26.25;;;8.82;;
41059;SDS011;26811;53.160;8.202;2023-07-16T04:10:18;37.85;;;9.77;;
41059;SDS011;26811;53.160;8.202;2023-07-16T04:15:19;42.83;;;9.70;;
41059;SDS011;26811;53.160;8.202;2023-07-16T04:20:19;37.60;;;9.55;;
41059;SDS011;26811;53.160;8.202;2023-07-16T04:25:20;30.50;;;9.15;;
41059;SDS011;26811;53.160;8.202;2023-07-16T04:30:21;24.92;;;8.77;;
41059;SDS011;26811;53.160;8.202;2023-07-16T04:35:21;28.02;;;8.48;;
41059;SDS011;26811;53.160;8.202;2023-07-16T04:40:22;33.42;;;8.68;;
41059;SDS011;26811;53.160;8.202;2023-07-16T04:45:22;28.50;;;8.05;;
41059;SDS011;26811;53.160;8.202;2023-07-16T04:50:23;28.55;;;7.97;;
41059;SDS011;26811;53.160;8.202;2023-07-16T04:55:23;28.60;;;7.45;;
41059;SDS011;26811;53.160;8.202;2023-07-16T05:00:24;28.48;;;8.23;;
41059;SDS011;26811;53.160;8.202;2023-07-16T05:05:25;34.13;;;7.97;;
41059;SDS011;26811;53.160;8.202;2023-07-16T05:10:26;24.00;;;8.57;;
41059;SDS011;26811;53.160;8.202;2023-07-16T05:15:27;27.50;;;8.30;;
41059;SDS011;26811;53.160;8.202;2023-07-16T05:20:28;29.83;;;9.25;;
41059;SDS011;26811;53.160;8.202;2023-07-16T05:25:28;31.90;;;8.20;;
41059;SDS011;26811;53.160;8.202;2023-07-16T05:30:29;34.25;;;9.05;;
41059;SDS011;26811;53.160;8.202;2023-07-16T05:35:29;32.70;;;8.85;;
41059;SDS011;26811;53.160;8.202;2023-07-16T05:40:30;33.88;;;9.23;;
41059;SDS011;26811;53.160;8.202;2023-07-16T05:45:30;29.88;;;8.27;;
41059;SDS011;26811;53.160;8.202;2023-07-16T05:50:31;24.17;;;8.07;;
41059;SDS011;26811;53.160;8.202;2023-07-16T05:55:31;33.20;;;8.63;;
41059;SDS011;26811;53.160;8.202;2023-07-16T06:00:32;24.23;;;7.55;;
41059;SDS011;26811;53.160;8.202;2023-07-16T06:05:32;26.40;;;7.65;;
41059;SDS011;26811;53.160;8.202;2023-07-16T06:10:34;33.53;;;8.10;;
41059;SDS011;26811;53.160;8.202;2023-07-16T06:15:36;28.60;;;6.93;;
41059;SDS011;26811;53.160;8.202;2023-07-16T06:20:36;31.38;;;7.28;;
41059;SDS011;26811;53.160;8.202;2023-07-16T06:25:37;26.27;;;6.75;;
41059;SDS011;26811;53.160;8.202;2023-07-16T06:30:37;28.67;;;6.57;;
41059;SDS011;26811;53.160;8.202;2023-07-16T06:35:39;27.73;;;6.22;;
41059;SDS011;26811;53.160;8.202;2023-07-16T06:40:39;27.80;;;6.47;;
41059;SDS011;26811;53.160;8.202;2023-07-16T06:45:45;21.88;;;7.07;;
41059;SDS011;26811;53.160;8.202;2023-07-16T06:50:46;21.15;;;6.85;;
41059;SDS011;26811;53.160;8.202;2023-07-16T06:55:49;20.48;;;6.38;;
41059;SDS011;26811;53.160;8.202;2023-07-16T07:00:50;28.95;;;7.25;;
41059;SDS011;26811;53.160;8.202;2023-07-16T07:05:50;22.73;;;6.63;;
41059;SDS011;26811;53.160;8.202;2023-07-16T07:10:51;25.02;;;6.95;;
41059;SDS011;26811;53.160;8.202;2023-07-16T07:15:51;25.05;;;7.22;;
41059;SDS011;26811;53.160;8.202;2023-07-16T07:20:52;19.25;;;7.22;;
41059;SDS011;26811;53.160;8.202;2023-07-16T07:25:52;23.38;;;6.93;;
41059;SDS011;26811;53.160;8.202;2023-07-16T07:30:53;19.02;;;6.43;;
41059;SDS011;26811;53.160;8.202;2023-07-16T07:35:54;20.48;;;7.53;;
41059;SDS011;26811;53.160;8.202;2023-07-16T07:40:55;21.75;;;7.63;;
41059;SDS011;26811;53.160;8.202;2023-07-16T07:45:55;23.20;;;7.57;;
41059;SDS011;26811;53.160;8.202;2023-07-16T07:50:56;28.27;;;7.65;;
41059;SDS011;26811;53.160;8.202;2023-07-16T07:55:56;24.65;;;7.00;;
41059;SDS011;26811;53.160;8.202;2023-07-16T08:01:02;22.20;;;7.10;;
41059;SDS011;26811;53.160;8.202;2023-07-16T08:06:06;23.23;;;7.20;;
41059;SDS011;26811;53.160;8.202;2023-07-16T08:11:07;23.27;;;6.80;;
41059;SDS011;26811;53.160;8.202;2023-07-16T08:16:07;19.05;;;6.75;;
41059;SDS011;26811;53.160;8.202;2023-07-16T08:21:09;24.17;;;6.87;;
41059;SDS011;26811;53.160;8.202;2023-07-16T08:26:09;17.83;;;6.30;;
41059;SDS011;26811;53.160;8.202;2023-07-16T08:31:12;20.65;;;7.18;;
41059;SDS011;26811;53.160;8.202;2023-07-16T08:36:13;26.05;;;6.68;;
41059;SDS011;26811;53.160;8.202;2023-07-16T08:41:14;25.90;;;6.53;;
41059;SDS011;26811;53.160;8.202;2023-07-16T08:46:15;18.15;;;6.80;;
41059;SDS011;26811;53.160;8.202;2023-07-16T08:51:15;18.70;;;6.45;;
41059;SDS011;26811;53.160;8.202;2023-07-16T08:56:16;25.63;;;7.18;;
41059;SDS011;26811;53.160;8.202;2023-07-16T09:01:17;21.05;;;7.18;;
41059;SDS011;26811;53.160;8.202;2023-07-16T09:06:18;24.65;;;7.53;;
41059;SDS011;26811;53.160;8.202;2023-07-16T09:11:18;29.13;;;8.00;;
41059;SDS011;26811;53.160;8.202;2023-07-16T09:16:21;21.15;;;7.25;;
41059;SDS011;26811;53.160;8.202;2023-07-16T09:21:22;21.90;;;8.07;;
41059;SDS011;26811;53.160;8.202;2023-07-16T09:26:23;24.58;;;8.02;;
41059;SDS011;26811;53.160;8.202;2023-07-16T09:31:23;24.55;;;7.30;;
41059;SDS011;26811;53.160;8.202;2023-07-16T09:36:27;23.27;;;7.80;;
41059;SDS011;26811;53.160;8.202;2023-07-16T09:41:28;21.92;;;7.30;;
41059;SDS011;26811;53.160;8.202;2023-07-16T09:46:29;26.33;;;7.78;;
41059;SDS011;26811;53.160;8.202;2023-07-16T09:51:32;24.05;;;7.05;;
41059;SDS011;26811;53.160;8.202;2023-07-16T09:56:36;19.85;;;6.43;;
41059;SDS011;26811;53.160;8.202;2023-07-16T10:01:40;15.20;;;5.63;;
41059;SDS011;26811;53.160;8.202;2023-07-16T10:11:50;27.45;;;6.65;;
41059;SDS011;26811;53.160;8.202;2023-07-16T10:16:51;16.75;;;6.22;;
41059;SDS011;26811;53.160;8.202;2023-07-16T10:21:51;17.33;;;6.60;;
41059;SDS011;26811;53.160;8.202;2023-07-16T10:26:52;18.98;;;6.35;;
41059;SDS011;26811;53.160;8.202;2023-07-16T10:31:52;23.58;;;7.70;;
41059;SDS011;26811;53.160;8.202;2023-07-16T10:36:53;18.98;;;7.03;;
41059;SDS011;26811;53.160;8.202;2023-07-16T10:41:53;31.20;;;7.20;;
41059;SDS011;26811;53.160;8.202;2023-07-16T10:46:54;21.90;;;6.70;;
41059;SDS011;26811;53.160;8.202;2023-07-16T10:51:55;17.53;;;6.10;;
41059;SDS011;26811;53.160;8.202;2023-07-16T10:56:57;18.92;;;6.20;;
41059;SDS011;26811;53.160;8.202;2023-07-16T11:01:58;12.38;;;5.20;;
41059;SDS011;26811;53.160;8.202;2023-07-16T11:06:58;18.50;;;5.82;;
41059;SDS011;26811;53.160;8.202;2023-07-16T11:12:05;17.75;;;6.00;;
41059;SDS011;26811;53.160;8.202;2023-07-16T11:17:07;19.88;;;6.10;;
41059;SDS011;26811;53.160;8.202;2023-07-16T11:22:09;21.70;;;6.50;;
41059;SDS011;26811;53.160;8.202;2023-07-16T11:27:13;18.67;;;6.95;;
41059;SDS011;26811;53.160;8.202;2023-07-16T11:32:37;17.65;;;6.32;;
41059;SDS011;26811;53.160;8.202;2023-07-16T11:37:37;18.70;;;6.90;;
41059;SDS011;26811;53.160;8.202;2023-07-16T11:42:38;19.67;;;6.55;;
41059;SDS011;26811;53.160;8.202;2023-07-16T11:47:39;16.77;;;6.30;;
41059;SDS011;26811;53.160;8.202;2023-07-16T11:52:40;17.30;;;6.43;;
41059;SDS011;26811;53.160;8.202;2023-07-16T11:57:41;17.52;;;6.43;;
41059;SDS011;26811;53.160;8.202;2023-07-16T12:02:41;17.77;;;6.45;;
41059;SDS011;26811;53.160;8.202;2023-07-16T12:07:42;20.35;;;6.68;;
41059;SDS011;26811;53.160;8.202;2023-07-16T12:12:42;14.00;;;6.30;;
41059;SDS011;26811;53.160;8.202;2023-07-16T12:17:43;22.25;;;6.65;;
41059;SDS011;26811;53.160;8.202;2023-07-16T12:22:43;18.10;;;6.00;;
41059;SDS011;26811;53.160;8.202;2023-07-16T12:27:44;23.33;;;6.78;;
41059;SDS011;26811;53.160;8.202;2023-07-16T12:32:44;14.18;;;6.30;;
41059;SDS011;26811;53.160;8.202;2023-07-16T12:37:45;33.28;;;7.35;;
41059;SDS011;26811;53.160;8.202;2023-07-16T12:42:45;16.65;;;6.18;;
41059;SDS011;26811;53.160;8.202;2023-07-16T12:47:46;19.88;;;6.90;;
41059;SDS011;26811;53.160;8.202;2023-07-16T12:52:46;19.70;;;7.03;;
41059;SDS011;26811;53.160;8.202;2023-07-16T12:57:47;20.00;;;6.72;;
41059;SDS011;26811;53.160;8.202;2023-07-16T13:02:47;24.60;;;7.78;;
41059;SDS011;26811;53.160;8.202;2023-07-16T13:07:48;24.27;;;7.95;;
41059;SDS011;26811;53.160;8.202;2023-07-16T13:12:48;23.23;;;8.02;;
41059;SDS011;26811;53.160;8.202;2023-07-16T13:17:49;18.88;;;6.97;;
41059;SDS011;26811;53.160;8.202;2023-07-16T13:22:50;23.05;;;8.20;;
41059;SDS011;26811;53.160;8.202;2023-07-16T13:27:51;19.63;;;7.10;;
41059;SDS011;26811;53.160;8.202;2023-07-16T13:32:52;21.40;;;7.65;;
41059;SDS011;26811;53.160;8.202;2023-07-16T13:37:55;20.55;;;7.35;;
41059;SDS011;26811;53.160;8.202;2023-07-16T13:42:56;23.58;;;7.95;;
41059;SDS011;26811;53.160;8.202;2023-07-16T13:47:57;19.55;;;7.47;;
41059;SDS011;26811;53.160;8.202;2023-07-16T13:52:57;25.20;;;8.07;;
41059;SDS011;26811;53.160;8.202;2023-07-16T13:58:01;22.85;;;8.07;;
41059;SDS011;26811;53.160;8.202;2023-07-16T14:03:01;26.20;;;8.43;;
41059;SDS011;26811;53.160;8.202;2023-07-16T14:08:03;26.13;;;8.13;;
41059;SDS011;26811;53.160;8.202;2023-07-16T14:13:04;19.58;;;7.70;;
41059;SDS011;26811;53.160;8.202;2023-07-16T14:18:04;17.95;;;7.00;;
41059;SDS011;26811;53.160;8.202;2023-07-16T14:23:05;19.70;;;6.57;;
41059;SDS011;26811;53.160;8.202;2023-07-16T14:28:06;18.10;;;7.20;;
41059;SDS011;26811;53.160;8.202;2023-07-16T14:33:06;18.35;;;7.13;;
41059;SDS011;26811;53.160;8.202;2023-07-16T14:38:07;19.77;;;6.30;;
41059;SDS011;26811;53.160;8.202;2023-07-16T14:43:07;14.95;;;6.82;;
41059;SDS011;26811;53.160;8.202;2023-07-16T14:48:08;19.98;;;7.85;;
41059;SDS011;26811;53.160;8.202;2023-07-16T14:53:09;19.80;;;6.97;;
41059;SDS011;26811;53.160;8.202;2023-07-16T14:58:12;23.83;;;8.27;;
41059;SDS011;26811;53.160;8.202;2023-07-16T15:03:13;22.80;;;7.47;;
41059;SDS011;26811;53.160;8.202;2023-07-16T15:08:13;17.33;;;7.20;;
41059;SDS011;26811;53.160;8.202;2023-07-16T15:13:14;20.30;;;6.93;;
41059;SDS011;26811;53.160;8.202;2023-07-16T15:18:15;24.92;;;7.28;;
41059;SDS011;26811;53.160;8.202;2023-07-16T15:23:15;20.20;;;7.28;;
41059;SDS011;26811;53.160;8.202;2023-07-16T15:28:16;20.95;;;6.95;;
41059;SDS011;26811;53.160;8.202;2023-07-16T15:33:16;24.00;;;8.27;;
41059;SDS011;26811;53.160;8.202;2023-07-16T15:38:17;21.98;;;8.57;;
41059;SDS011;26811;53.160;8.202;2023-07-16T15:43:18;25.45;;;8.98;;
41059;SDS011;26811;53.160;8.202;2023-07-16T15:48:18;20.80;;;7.63;;
41059;SDS011;26811;53.160;8.202;2023-07-16T15:53:19;23.88;;;8.68;;
41059;SDS011;26811;53.160;8.202;2023-07-16T15:58:19;19.63;;;7.05;;
41059;SDS011;26811;53.160;8.202;2023-07-16T16:03:20;21.73;;;7.57;;
41059;SDS011;26811;53.160;8.202;2023-07-16T16:08:21;20.38;;;6.50;;
41059;SDS011;26811;53.160;8.202;2023-07-16T16:13:22;14.48;;;6.38;;
41059;SDS011;26811;53.160;8.202;2023-07-16T16:18:24;17.67;;;6.32;;
41059;SDS011;26811;53.160;8.202;2023-07-16T16:23:25;16.52;;;6.47;;
41059;SDS011;26811;53.160;8.202;2023-07-16T16:28:26;20.75;;;6.47;;
41059;SDS011;26811;53.160;8.202;2023-07-16T16:33:26;19.50;;;6.50;;
41059;SDS011;26811;53.160;8.202;2023-07-16T16:38:27;19.58;;;6.70;;
41059;SDS011;26811;53.160;8.202;2023-07-16T16:43:27;18.77;;;6.47;;
41059;SDS011;26811;53.160;8.202;2023-07-16T16:48:28;18.02;;;6.82;;
41059;SDS011;26811;53.160;8.202;2023-07-16T16:53:30;22.90;;;7.25;;
41059;SDS011;26811;53.160;8.202;2023-07-16T16:58:31;19.10;;;6.53;;
41059;SDS011;26811;53.160;8.202;2023-07-16T17:03:32;15.13;;;5.93;;
41059;SDS011;26811;53.160;8.202;2023-07-16T17:08:33;14.73;;;6.17;;
41059;SDS011;26811;53.160;8.202;2023-07-16T17:13:34;18.27;;;6.50;;
41059;SDS011;26811;53.160;8.202;2023-07-16T17:18:34;15.73;;;6.60;;
41059;SDS011;26811;53.160;8.202;2023-07-16T17:23:35;19.35;;;6.10;;
41059;SDS011;26811;53.160;8.202;2023-07-16T17:28:35;14.13;;;5.97;;
41059;SDS011;26811;53.160;8.202;2023-07-16T17:33:36;15.75;;;5.97;;
41059;SDS011;26811;53.160;8.202;2023-07-16T17:38:36;17.05;;;6.22;;
41059;SDS011;26811;53.160;8.202;2023-07-16T17:43:37;15.65;;;6.68;;
41059;SDS011;26811;53.160;8.202;2023-07-16T17:48:38;13.10;;;5.88;;
41059;SDS011;26811;53.160;8.202;2023-07-16T17:53:38;15.60;;;6.45;;
41059;SDS011;26811;53.160;8.202;2023-07-16T17:58:39;15.65;;;5.78;;
41059;SDS011;26811;53.160;8.202;2023-07-16T18:03:40;16.77;;;6.78;;
41059;SDS011;26811;53.160;8.202;2023-07-16T18:08:41;13.50;;;6.30;;
41059;SDS011;26811;53.160;8.202;2023-07-16T18:13:42;18.35;;;6.90;;
41059;SDS011;26811;53.160;8.202;2023-07-16T18:18:42;16.95;;;6.38;;
41059;SDS011;26811;53.160;8.202;2023-07-16T18:23:43;17.13;;;6.13;;
41059;SDS011;26811;53.160;8.202;2023-07-16T18:28:43;21.75;;;7.07;;
41059;SDS011;26811;53.160;8.202;2023-07-16T18:33:44;15.75;;;6.80;;
41059;SDS011;26811;53.160;8.202;2023-07-16T18:38:44;19.85;;;6.47;;
41059;SDS011;26811;53.160;8.202;2023-07-16T18:43:45;18.80;;;6.55;;
41059;SDS011;26811;53.160;8.202;2023-07-16T18:48:46;14.85;;;7.03;;
41059;SDS011;26811;53.160;8.202;2023-07-16T18:53:46;22.35;;;6.68;;
41059;SDS011;26811;53.160;8.202;2023-07-16T18:58:47;15.73;;;6.28;;
41059;SDS011;26811;53.160;8.202;2023-07-16T19:03:48;15.98;;;6.25;;
41059;SDS011;26811;53.160;8.202;2023-07-16T19:08:48;15.02;;;5.57;;
41059;SDS011;26811;53.160;8.202;2023-07-16T19:13:49;16.25;;;4.88;;
41059;SDS011;26811;53.160;8.202;2023-07-16T19:18:49;16.30;;;5.85;;
41059;SDS011;26811;53.160;8.202;2023-07-16T19:23:50;20.00;;;5.55;;
41059;SDS011;26811;53.160;8.202;2023-07-16T19:28:50;14.20;;;4.88;;
41059;SDS011;26811;53.160;8.202;2023-07-16T19:33:53;16.98;;;5.45;;
41059;SDS011;26811;53.160;8.202;2023-07-16T19:38:54;14.47;;;6.40;;
41059;SDS011;26811;53.160;8.202;2023-07-16T19:43:55;18.15;;;5.82;;
41059;SDS011;26811;53.160;8.202;2023-07-16T19:48:55;20.52;;;6.68;;
41059;SDS011;26811;53.160;8.202;2023-07-16T19:53:56;10.50;;;5.30;;
41059;SDS011;26811;53.160;8.202;2023-07-16T19:58:58;15.95;;;6.15;;
41059;SDS011;26811;53.160;8.202;2023-07-16T20:03:58;14.32;;;6.15;;
41059;SDS011;26811;53.160;8.202;2023-07-16T20:08:59;16.30;;;5.97;;
41059;SDS011;26811;53.160;8.202;2023-07-16T20:13:59;21.63;;;6.40;;
41059;SDS011;26811;53.160;8.202;2023-07-16T20:19:00;13.88;;;5.75;;
41059;SDS011;26811;53.160;8.202;2023-07-16T20:24:00;21.73;;;6.07;;
41059;SDS011;26811;53.160;8.202;2023-07-16T20:29:03;21.45;;;5.95;;
41059;SDS011;26811;53.160;8.202;2023-07-16T20:34:03;11.73;;;5.53;;
41059;SDS011;26811;53.160;8.202;2023-07-16T20:39:04;16.00;;;5.93;;
41059;SDS011;26811;53.160;8.202;2023-07-16T20:44:04;14.15;;;5.68;;
41059;SDS011;26811;53.160;8.202;2023-07-16T20:49:05;14.48;;;5.65;;
41059;SDS011;26811;53.160;8.202;2023-07-16T20:54:05;14.45;;;5.10;;
41059;SDS011;26811;53.160;8.202;2023-07-16T20:59:08;16.67;;;5.40;;
41059;SDS011;26811;53.160;8.202;2023-07-16T21:04:08;16.73;;;5.40;;
41059;SDS011;26811;53.160;8.202;2023-07-16T21:09:09;16.40;;;5.93;;
41059;SDS011;26811;53.160;8.202;2023-07-16T21:14:09;15.05;;;5.18;;
41059;SDS011;26811;53.160;8.202;2023-07-16T21:19:10;10.75;;;4.90;;
41059;SDS011;26811;53.160;8.202;2023-07-16T21:24:10;14.95;;;4.97;;
41059;SDS011;26811;53.160;8.202;2023-07-16T21:29:11;13.82;;;5.07;;
41059;SDS011;26811;53.160;8.202;2023-07-16T21:34:11;17.83;;;4.63;;
41059;SDS011;26811;53.160;8.202;2023-07-16T21:39:12;17.95;;;5.30;;
41059;SDS011;26811;53.160;8.202;2023-07-16T21:44:12;24.77;;;5.75;;
41059;SDS011;26811;53.160;8.202;2023-07-16T21:49:13;14.48;;;4.88;;
41059;SDS011;26811;53.160;8.202;2023-07-16T21:54:13;14.07;;;4.72;;
41059;SDS011;26811;53.160;8.202;2023-07-16T21:59:14;14.73;;;4.90;;
41059;SDS011;26811;53.160;8.202;2023-07-16T22:04:14;12.88;;;5.05;;
41059;SDS011;26811;53.160;8.202;2023-07-16T22:09:15;18.40;;;5.15;;
41059;SDS011;26811;53.160;8.202;2023-07-16T22:14:16;12.52;;;4.82;;
41059;SDS011;26811;53.160;8.202;2023-07-16T22:19:17;11.88;;;4.93;;
41059;SDS011;26811;53.160;8.202;2023-07-16T22:24:18;17.17;;;5.30;;
41059;SDS011;26811;53.160;8.202;2023-07-16T22:29:18;16.13;;;5.60;;
41059;SDS011;26811;53.160;8.202;2023-07-16T22:34:19;15.50;;;5.38;;
41059;SDS011;26811;53.160;8.202;2023-07-16T22:39:20;16.02;;;5.80;;
41059;SDS011;26811;53.160;8.202;2023-07-16T22:44:20;14.48;;;5.05;;
41059;SDS011;26811;53.160;8.202;2023-07-16T22:49:21;14.25;;;5.53;;
41059;SDS011;26811;53.160;8.202;2023-07-16T22:54:21;15.38;;;5.90;;
41059;SDS011;26811;53.160;8.202;2023-07-16T22:59:22;13.57;;;5.07;;
41059;SDS011;26811;53.160;8.202;2023-07-16T23:04:22;11.38;;;5.25;;
41059;SDS011;26811;53.160;8.202;2023-07-16T23:09:23;25.60;;;11.73;;
41059;SDS011;26811;53.160;8.202;2023-07-16T23:14:24;16.58;;;7.57;;
41059;SDS011;26811;53.160;8.202;2023-07-16T23:19:25;16.10;;;7.90;;
41059;SDS011;26811;53.160;8.202;2023-07-16T23:24:25;18.95;;;10.30;;
41059;SDS011;26811;53.160;8.202;2023-07-16T23:29:26;18.83;;;7.30;;
41059;SDS011;26811;53.160;8.202;2023-07-16T23:34:27;21.20;;;7.10;;
41059;SDS011;26811;53.160;8.202;2023-07-16T23:39:27;19.55;;;6.30;;
41059;SDS011;26811;53.160;8.202;2023-07-16T23:44:28;16.30;;;5.40;;
41059;SDS011;26811;53.160;8.202;2023-07-16T23:49:29;18.02;;;5.63;;
41059;SDS011;26811;53.160;8.202;2023-07-16T23:54:30;31.92;;;6.35;;
41059;SDS011;26811;53.160;8.202;2023-07-16T23:59:30;14.23;;;5.75;;
